createdAt,value
2018-03-30T00:03:29.646Z,3.15
2018-03-30T00:09:20.528Z,3.91
2018-03-30T00:15:11.447Z,2.83
2018-03-30T00:21:02.328Z,3.14
2018-03-30T00:26:53.238Z,3.21
2018-03-30T00:32:44.074Z,3.39
2018-03-30T00:38:35.004Z,3.62
2018-03-30T00:44:25.934Z,2.95
2018-03-30T00:50:16.821Z,3.15
2018-03-30T00:56:07.677Z,3.06
2018-03-30T01:01:58.603Z,2.95
2018-03-30T01:07:49.512Z,3.17
2018-03-30T01:13:40.383Z,3.62
2018-03-30T01:19:31.283Z,4.09
2018-03-30T01:25:22.226Z,3.76
2018-03-30T01:31:13.187Z,3.35
2018-03-30T01:37:03.966Z,3.61
2018-03-30T01:42:54.848Z,3.33
2018-03-30T01:48:45.751Z,3.82
2018-03-30T01:54:36.639Z,3.46
2018-03-30T02:00:27.530Z,3.52
2018-03-30T02:06:18.427Z,3.88
2018-03-30T02:12:09.351Z,3.23
2018-03-30T02:18:00.244Z,3.17
2018-03-30T02:23:51.123Z,3.97
2018-03-30T02:29:42.018Z,3.91
2018-03-30T02:35:32.915Z,4.04
2018-03-30T02:41:23.791Z,3.67
2018-03-30T02:47:14.699Z,4
2018-03-30T02:53:05.650Z,3.62
2018-03-30T02:58:56.468Z,3.95
2018-03-30T03:04:47.358Z,3.47
2018-03-30T03:10:38.313Z,4.24
2018-03-30T03:16:29.162Z,3.97
2018-03-30T03:22:20.105Z,4.1
2018-03-30T03:28:10.937Z,4.33
2018-03-30T03:34:01.847Z,4.85
2018-03-30T03:39:52.737Z,4.76
2018-03-30T03:45:43.712Z,4.7
2018-03-30T03:51:34.566Z,5.11
2018-03-30T03:57:25.453Z,4.56
2018-03-30T04:03:16.365Z,4.55
2018-03-30T04:09:07.261Z,5.5
2018-03-30T04:14:58.173Z,12.05
2018-03-30T04:20:49.096Z,10.51
2018-03-30T04:26:39.933Z,10.76
2018-03-30T04:32:30.793Z,7.02
2018-03-30T04:38:21.703Z,5.68
2018-03-30T04:44:12.666Z,5.51
2018-03-30T04:50:03.565Z,5.4
2018-03-30T04:55:54.461Z,5.54
2018-03-30T05:01:45.302Z,6.05
2018-03-30T05:07:36.198Z,5.58
2018-03-30T05:13:27.080Z,6.55
2018-03-30T05:19:18.082Z,6.79
2018-03-30T05:25:08.934Z,6.47
2018-03-30T05:30:59.793Z,6.72
2018-03-30T05:36:50.711Z,6.94
2018-03-30T05:42:41.585Z,6.64
2018-03-30T05:48:32.480Z,6.72
2018-03-30T05:54:23.365Z,6.82
2018-03-30T06:00:14.269Z,5.87
2018-03-30T06:06:05.175Z,7.57
2018-03-30T06:11:56.065Z,7.58
2018-03-30T06:17:46.976Z,6.45
2018-03-30T06:23:37.843Z,6.94
2018-03-30T06:29:28.749Z,6.86
2018-03-30T06:35:19.594Z,8.07
2018-03-30T06:41:10.563Z,9.02
2018-03-30T06:47:01.408Z,6.89
2018-03-30T06:52:52.281Z,7.03
2018-03-30T06:58:43.269Z,7.49
2018-03-30T07:04:34.100Z,7.82
2018-03-30T07:10:25.001Z,12.64
2018-03-30T07:16:15.911Z,10.96
2018-03-30T07:22:06.758Z,23.01
2018-03-30T07:27:57.669Z,17.66
2018-03-30T07:33:48.560Z,18.48
2018-03-30T07:39:39.480Z,11.57
2018-03-30T07:45:30.350Z,11.44
2018-03-30T07:51:21.261Z,11.34
2018-03-30T07:57:12.161Z,9.75
2018-03-30T08:03:03.031Z,9.49
2018-03-30T08:08:53.929Z,11.66
2018-03-30T08:14:44.839Z,9.79
2018-03-30T08:20:35.698Z,10.87
2018-03-30T08:26:26.604Z,10.13
2018-03-30T08:32:17.504Z,12.01
2018-03-30T08:38:08.413Z,13.09
2018-03-30T08:43:59.350Z,11.68
2018-03-30T08:49:50.187Z,11.11
2018-03-30T08:55:41.087Z,9.64
2018-03-30T09:01:31.983Z,10.05
2018-03-30T09:07:22.882Z,9.57
2018-03-30T09:13:13.818Z,10.59
2018-03-30T09:19:04.725Z,9.92
2018-03-30T09:24:55.570Z,10.26
2018-03-30T09:30:46.435Z,10.21
2018-03-30T09:36:37.319Z,10.55
2018-03-30T09:42:28.236Z,10.61
2018-03-30T09:48:19.089Z,7.02
2018-03-30T09:54:09.986Z,7.06
2018-03-30T10:00:00.888Z,7.09
2018-03-30T10:05:51.834Z,7.18
2018-03-30T10:11:42.735Z,7.33
2018-03-30T10:17:33.597Z,5.61
2018-03-30T10:23:24.514Z,6.79
2018-03-30T10:29:15.430Z,6.05
2018-03-30T10:35:06.309Z,5.59
2018-03-30T10:40:57.146Z,5.87
2018-03-30T10:46:48.088Z,5.92
2018-03-30T10:52:38.964Z,7.44
2018-03-30T10:58:29.850Z,6.78
2018-03-30T11:04:20.746Z,9.41
2018-03-30T11:10:11.716Z,7.29
2018-03-30T11:16:02.553Z,8.34
2018-03-30T11:21:53.493Z,6.43
2018-03-30T11:27:44.360Z,6.62
2018-03-30T11:33:35.224Z,5.8
2018-03-30T11:39:26.203Z,4.75
2018-03-30T11:45:17.030Z,4.62
2018-03-30T11:51:07.951Z,4.94
2018-03-30T11:56:58.810Z,4.89
2018-03-30T12:02:49.679Z,4.84
2018-03-30T12:08:40.639Z,6.95
2018-03-30T12:14:31.557Z,4.76
2018-03-30T12:20:22.377Z,4.93
2018-03-30T12:26:13.310Z,4.68
2018-03-30T12:32:04.178Z,4.1
2018-03-30T12:37:55.102Z,4.98
2018-03-30T12:43:46.034Z,4.34
2018-03-30T12:49:36.898Z,3.92
2018-03-30T12:55:27.760Z,3.61
2018-03-30T13:01:18.682Z,5.57
2018-03-30T13:07:09.563Z,3.39
2018-03-30T13:13:00.462Z,4.12
2018-03-30T13:18:51.331Z,4.27
2018-03-30T13:24:42.246Z,4.61
2018-03-30T13:30:33.152Z,4.22
2018-03-30T13:36:24.064Z,3.85
2018-03-30T13:42:14.926Z,3.94
2018-03-30T13:48:05.852Z,4.3
2018-03-30T13:53:56.681Z,3.87
2018-03-30T13:59:47.718Z,4.17
2018-03-30T14:05:38.500Z,3.5
2018-03-30T14:11:29.388Z,3.62
2018-03-30T14:17:20.380Z,3.24
2018-03-30T14:23:11.188Z,3.87
2018-03-30T14:29:02.082Z,3.51
2018-03-30T14:34:52.983Z,2.91
2018-03-30T14:40:43.889Z,3.22
2018-03-30T14:46:34.799Z,3.29
2018-03-30T14:52:25.677Z,2.92
2018-03-30T14:58:16.636Z,3.09
2018-03-30T15:04:07.453Z,3.83
2018-03-30T15:09:58.385Z,2.92
2018-03-30T15:15:49.224Z,2.77
2018-03-30T15:21:40.167Z,3
2018-03-30T15:27:31.118Z,2.94
2018-03-30T15:33:21.941Z,3.06
2018-03-30T15:39:12.861Z,3.48
2018-03-30T15:45:03.760Z,3.61
2018-03-30T15:50:54.639Z,3.03
2018-03-30T15:56:45.530Z,3.29
2018-03-30T16:02:36.465Z,3.65
2018-03-30T16:08:27.294Z,3.66
2018-03-30T16:14:18.212Z,3.74
2018-03-30T16:20:09.107Z,3.45
2018-03-30T16:26:00.009Z,3.69
2018-03-30T16:31:50.905Z,3.67
2018-03-30T16:37:41.829Z,7.59
2018-03-30T16:43:32.690Z,12.64
2018-03-30T16:49:23.575Z,19.75
2018-03-30T16:55:14.511Z,23.5
2018-03-30T17:01:05.402Z,24.87
2018-03-30T17:06:56.299Z,8.04
2018-03-30T17:12:47.255Z,21.89
2018-03-30T17:18:38.093Z,14.67
2018-03-30T17:24:28.990Z,8.67
2018-03-30T17:30:19.941Z,5.12
2018-03-30T17:36:10.760Z,4.28
2018-03-30T17:42:01.736Z,3.52
2018-03-30T17:47:52.638Z,2.78
2018-03-30T17:53:43.471Z,4.35
2018-03-30T17:59:34.387Z,6.82
2018-03-30T18:05:25.283Z,3.51
2018-03-30T18:11:16.195Z,4.09
2018-03-30T18:17:07.072Z,2.66
2018-03-30T18:22:58.026Z,6.07
2018-03-30T18:28:48.903Z,3.05
2018-03-30T18:34:39.785Z,2.91
2018-03-30T18:40:30.737Z,3.28
2018-03-30T18:46:21.548Z,2.43
2018-03-30T18:52:12.435Z,2.86
2018-03-30T18:58:03.340Z,2.69
2018-03-30T19:03:54.236Z,3.2
2018-03-30T19:09:45.131Z,2.57
2018-03-30T19:15:36.012Z,3.21
2018-03-30T19:21:26.948Z,3.56
2018-03-30T19:27:17.814Z,3.96
2018-03-30T19:33:08.726Z,4.01
2018-03-30T19:38:59.638Z,4.01
2018-03-30T19:44:50.503Z,3.21
2018-03-30T19:50:41.460Z,2.81
2018-03-30T19:56:32.346Z,2.64
2018-03-30T20:02:23.198Z,2.52
2018-03-30T20:08:14.138Z,2.7
2018-03-30T20:14:04.984Z,1.83
2018-03-30T20:19:55.954Z,2.95
2018-03-30T20:25:46.859Z,4.11
2018-03-30T20:31:37.708Z,2.82
2018-03-30T20:37:28.624Z,2.32
2018-03-30T20:43:19.492Z,2.47
2018-03-30T20:49:10.504Z,1.88
2018-03-30T20:55:01.363Z,1.56
2018-03-30T21:00:52.225Z,1.87
2018-03-30T21:06:43.119Z,2.06
2018-03-30T21:12:34.052Z,2.14
2018-03-30T21:18:24.931Z,1.66
2018-03-30T21:24:15.809Z,1.93
2018-03-30T21:30:06.721Z,3.32
2018-03-30T21:35:57.604Z,1.94
2018-03-30T21:41:48.516Z,1.99
2018-03-30T21:47:39.400Z,2.41
2018-03-30T21:53:30.328Z,2.43
2018-03-30T21:59:21.230Z,3.21
2018-03-30T22:05:12.082Z,1.95
2018-03-30T22:11:02.971Z,2.2
2018-03-30T22:16:53.893Z,2.25
2018-03-30T22:22:44.801Z,1.66
2018-03-30T22:28:35.705Z,2.36
2018-03-30T22:34:26.684Z,2.29
2018-03-30T22:40:17.531Z,2.48
2018-03-30T22:46:08.343Z,2.13
2018-03-30T22:51:59.330Z,2.16
2018-03-30T22:57:50.173Z,2.44
2018-03-30T23:03:41.086Z,2.16
2018-03-30T23:09:31.966Z,1.84
2018-03-30T23:15:22.846Z,3.15
2018-03-30T23:21:13.733Z,2.58
2018-03-30T23:27:04.621Z,2.42
2018-03-30T23:32:55.549Z,1.95
2018-03-30T23:38:46.507Z,2.48
2018-03-30T23:44:37.443Z,2.73
2018-03-30T23:50:28.213Z,2.24
2018-03-30T23:56:19.137Z,2.3
